Time;durP1;ratioP1;P1;durP2;ratioP2;P2;SDS_P1;SDS_P2;PMS_P1;PMS_P2;Temp;Humidity;BMP_temperature;BMP_pressure;BME280_temperature;BME280_humidity;BME280_pressure;Samples;Min_cycle;Max_cycle;Signal;HPM_P1;HPM_P2
2023/12/06 00:01:04;;;;;;;1.40;1.10;;;5.00;98.00;;;;;;5053226;28;20829;-67
2023/12/06 00:03:31;;;;;;;1.20;1.20;;;5.10;98.00;;;;;;5035494;28;20460;-67
2023/12/06 00:05:58;;;;;;;2.80;1.37;;;5.00;98.00;;;;;;5035455;28;20509;-66
2023/12/06 00:08:25;;;;;;;1.30;1.20;;;5.00;98.00;;;;;;5052841;28;20479;-67
2023/12/06 00:10:53;;;;;;;1.53;1.30;;;5.00;98.00;;;;;;5053264;28;20951;-67
2023/12/06 00:13:20;;;;;;;1.63;1.47;;;5.00;98.00;;;;;;5052923;28;20455;-67
2023/12/06 00:15:47;;;;;;;1.40;1.30;;;4.90;98.00;;;;;;5052885;28;20459;-67
2023/12/06 00:18:16;;;;;;;1.43;1.33;;;4.90;98.00;;;;;;5052969;28;20537;-67
2023/12/06 00:20:43;;;;;;;1.47;1.30;;;4.90;98.00;;;;;;5052729;28;20463;-67
2023/12/06 00:23:11;;;;;;;1.50;1.30;;;4.90;98.00;;;;;;5053071;28;20455;-67
2023/12/06 00:25:38;;;;;;;1.73;1.30;;;4.90;98.00;;;;;;5035287;28;20819;-67
2023/12/06 00:28:05;;;;;;;1.50;1.40;;;4.90;98.00;;;;;;5052817;28;20463;-67
2023/12/06 00:30:32;;;;;;;1.63;1.20;;;4.80;98.00;;;;;;5052648;28;20531;-67
2023/12/06 00:32:59;;;;;;;1.63;1.30;;;4.90;98.00;;;;;;5052730;28;21100;-66
2023/12/06 00:35:28;;;;;;;1.60;1.30;;;4.90;98.00;;;;;;5053019;28;20888;-67
2023/12/06 00:37:55;;;;;;;1.40;1.40;;;4.90;98.00;;;;;;5034769;28;20489;-67
2023/12/06 00:40:22;;;;;;;1.57;1.40;;;4.90;98.00;;;;;;5034873;28;20493;-67
2023/12/06 00:42:49;;;;;;;1.30;1.17;;;4.90;98.00;;;;;;5052656;28;20463;-67
2023/12/06 00:45:16;;;;;;;1.30;1.20;;;4.90;98.00;;;;;;5052673;28;20447;-67
2023/12/06 00:47:43;;;;;;;1.43;1.20;;;5.00;98.00;;;;;;5034707;28;20902;-67
2023/12/06 00:50:11;;;;;;;1.40;1.20;;;5.00;98.00;;;;;;5052611;28;20474;-67
2023/12/06 00:52:39;;;;;;;1.20;1.20;;;4.90;98.00;;;;;;5052303;28;20515;-66
2023/12/06 00:55:07;;;;;;;1.50;1.30;;;5.00;98.00;;;;;;5052380;28;20467;-67
2023/12/06 00:57:34;;;;;;;1.40;1.30;;;4.90;98.00;;;;;;5052227;28;20486;-67
2023/12/06 01:00:02;;;;;;;2.33;1.20;;;4.90;98.00;;;;;;5052179;28;20459;-67
2023/12/06 01:02:29;;;;;;;1.60;1.23;;;4.90;98.00;;;;;;5034603;28;20458;-67
2023/12/06 01:04:56;;;;;;;1.50;1.20;;;4.90;98.00;;;;;;5052044;28;20818;-67
2023/12/06 01:07:23;;;;;;;1.60;1.30;;;4.90;98.00;;;;;;5051938;28;20450;-67
2023/12/06 01:09:52;;;;;;;1.50;1.30;;;5.00;98.00;;;;;;5051892;28;20455;-67
2023/12/06 01:12:20;;;;;;;1.50;1.33;;;5.00;98.00;;;;;;5034389;28;20460;-67
2023/12/06 01:14:47;;;;;;;1.20;1.07;;;5.00;98.00;;;;;;5034387;28;20518;-67
2023/12/06 01:17:14;;;;;;;3.77;1.20;;;5.00;98.00;;;;;;5051855;28;20471;-67
2023/12/06 01:19:41;;;;;;;1.70;1.30;;;5.00;98.00;;;;;;5050659;28;20479;-67
2023/12/06 01:22:08;;;;;;;1.83;1.30;;;5.00;98.00;;;;;;5051643;28;20508;-67
2023/12/06 01:24:35;;;;;;;1.43;1.20;;;5.10;98.00;;;;;;5051822;28;20745;-67
2023/12/06 01:27:05;;;;;;;1.50;1.20;;;5.00;98.00;;;;;;5051416;28;20517;-67
2023/12/06 01:29:32;;;;;;;1.77;1.40;;;5.00;98.00;;;;;;5051584;28;20455;-67
2023/12/06 01:31:59;;;;;;;1.97;1.50;;;4.90;98.00;;;;;;5051658;28;20459;-67
2023/12/06 01:34:26;;;;;;;2.50;1.40;;;4.90;98.00;;;;;;5051612;28;20524;-67
2023/12/06 01:36:53;;;;;;;1.30;1.20;;;4.80;98.00;;;;;;5051471;28;20498;-67
2023/12/06 01:39:20;;;;;;;1.20;1.17;;;4.80;98.00;;;;;;5051666;28;21013;-67
2023/12/06 01:41:57;;;;;;;1.93;1.40;;;4.80;98.00;;;;;;5051603;28;20463;-67
2023/12/06 01:44:25;;;;;;;1.40;1.23;;;4.80;98.00;;;;;;5051525;28;20463;-67
2023/12/06 01:46:52;;;;;;;1.73;1.40;;;4.80;98.00;;;;;;5051171;28;20545;-67
2023/12/06 01:49:20;;;;;;;1.50;1.40;;;4.80;98.00;;;;;;5051456;28;20455;-67
2023/12/06 01:51:47;;;;;;;1.73;1.10;;;4.70;98.00;;;;;;5051168;28;20871;-67
2023/12/06 01:54:14;;;;;;;2.40;1.37;;;4.70;98.00;;;;;;5033673;28;20529;-67
2023/12/06 01:56:44;;;;;;;1.30;1.20;;;4.70;98.00;;;;;;5051004;28;20452;-67
2023/12/06 01:59:12;;;;;;;1.93;1.30;;;4.70;98.00;;;;;;5051230;28;20487;-67
2023/12/06 02:01:41;;;;;;;1.30;1.30;;;4.70;98.00;;;;;;5051083;28;20870;-67
2023/12/06 02:04:08;;;;;;;1.33;1.30;;;4.70;98.00;;;;;;5051107;28;20481;-67
2023/12/06 02:06:36;;;;;;;1.20;1.20;;;4.70;98.00;;;;;;5033228;28;20516;-67
2023/12/06 02:09:04;;;;;;;1.20;1.20;;;4.70;98.00;;;;;;5051444;28;20458;-67
2023/12/06 02:11:32;;;;;;;1.37;1.17;;;4.60;98.00;;;;;;5051127;28;20480;-67
2023/12/06 02:13:59;;;;;;;1.20;1.20;;;4.60;98.00;;;;;;5051032;28;20458;-67
2023/12/06 02:16:27;;;;;;;1.23;1.10;;;4.70;98.00;;;;;;5050916;28;20458;-67
2023/12/06 02:18:55;;;;;;;1.20;1.20;;;4.70;98.00;;;;;;5033079;28;20490;-67
2023/12/06 02:21:24;;;;;;;1.50;1.30;;;4.70;98.00;;;;;;5051022;28;20452;-67
2023/12/06 02:23:53;;;;;;;1.20;1.20;;;4.70;98.00;;;;;;5051028;28;20936;-67
2023/12/06 02:26:29;;;;;;;1.30;1.30;;;4.70;98.00;;;;;;5050976;28;20461;-67
2023/12/06 02:28:57;;;;;;;2.70;1.30;;;4.70;98.00;;;;;;5051201;28;20457;-67
2023/12/06 02:31:24;;;;;;;1.60;1.30;;;4.70;98.00;;;;;;5054555;28;20459;-67
2023/12/06 02:33:53;;;;;;;2.73;1.30;;;4.70;98.00;;;;;;5037433;28;20492;-67
2023/12/06 02:36:20;;;;;;;1.43;1.40;;;4.70;98.00;;;;;;5055078;28;20450;-67
2023/12/06 02:38:48;;;;;;;1.60;1.50;;;4.70;98.00;;;;;;5037438;28;20496;-67
2023/12/06 02:41:17;;;;;;;2.80;1.53;;;4.70;98.00;;;;;;5037021;28;20516;-67
2023/12/06 02:43:46;;;;;;;1.30;1.30;;;4.60;98.00;;;;;;5054771;28;20450;-67
2023/12/06 02:46:14;;;;;;;1.57;1.23;;;4.70;98.00;;;;;;5054750;28;20949;-67
2023/12/06 02:48:41;;;;;;;1.40;1.30;;;4.60;98.00;;;;;;5054904;28;20458;-67
2023/12/06 02:51:08;;;;;;;1.47;1.20;;;4.60;98.00;;;;;;5054861;28;20793;-67
2023/12/06 02:53:35;;;;;;;1.83;1.40;;;4.50;98.00;;;;;;5054419;28;20459;-67
2023/12/06 02:56:02;;;;;;;1.27;1.23;;;4.50;98.00;;;;;;5055011;28;20504;-67
2023/12/06 02:58:29;;;;;;;1.77;1.50;;;4.50;98.00;;;;;;5055483;28;20449;-67
2023/12/06 03:01:00;;;;;;;1.40;1.40;;;4.50;98.00;;;;;;5055151;28;20455;-67
2023/12/06 03:03:27;;;;;;;1.40;1.30;;;4.50;98.00;;;;;;5037624;28;20969;-67
2023/12/06 03:05:54;;;;;;;1.57;1.23;;;4.50;98.00;;;;;;5054581;28;20457;-67
2023/12/06 03:08:21;;;;;;;2.43;1.20;;;4.60;98.00;;;;;;5036712;28;20455;-67
2023/12/06 03:10:48;;;;;;;2.17;1.40;;;4.70;98.00;;;;;;5054574;28;21003;-67
2023/12/06 03:13:15;;;;;;;1.37;1.30;;;4.70;98.00;;;;;;5054372;28;20451;-67
2023/12/06 03:15:42;;;;;;;1.37;1.20;;;4.80;98.00;;;;;;5054199;28;20449;-67
2023/12/06 03:18:11;;;;;;;1.40;1.30;;;4.80;98.00;;;;;;5036741;28;20977;-67
2023/12/06 03:20:38;;;;;;;1.20;1.10;;;4.70;98.00;;;;;;5054016;28;20494;-67
2023/12/06 03:23:05;;;;;;;1.57;1.40;;;4.70;98.00;;;;;;5053935;28;20465;-67
2023/12/06 03:25:32;;;;;;;1.30;1.20;;;4.70;98.00;;;;;;5053306;28;20457;-67
2023/12/06 03:27:59;;;;;;;1.63;1.30;;;4.70;98.00;;;;;;5053799;28;20457;-67
2023/12/06 03:30:26;;;;;;;1.47;1.33;;;4.90;98.00;;;;;;5053787;28;20505;-67
2023/12/06 03:32:53;;;;;;;1.30;1.20;;;4.90;98.00;;;;;;5053863;28;20842;-67
2023/12/06 03:35:22;;;;;;;1.50;1.23;;;5.00;98.00;;;;;;5053870;28;20465;-67
2023/12/06 03:37:49;;;;;;;1.40;1.23;;;5.00;98.00;;;;;;5053614;28;20458;-67
2023/12/06 03:40:16;;;;;;;1.30;1.20;;;5.00;98.00;;;;;;5053626;28;20539;-66
2023/12/06 03:42:43;;;;;;;1.60;1.27;;;4.80;98.00;;;;;;5052834;28;20964;-67
2023/12/06 03:45:12;;;;;;;1.30;1.20;;;5.00;98.00;;;;;;5053483;28;20455;-67
2023/12/06 03:47:39;;;;;;;1.23;1.20;;;5.00;98.00;;;;;;5053395;28;20459;-67
2023/12/06 03:50:07;;;;;;;1.40;1.20;;;4.90;98.00;;;;;;5053688;28;20457;-67
2023/12/06 03:52:36;;;;;;;1.73;1.27;;;5.00;98.00;;;;;;5052917;28;20466;-66
2023/12/06 03:55:03;;;;;;;1.47;1.30;;;5.10;98.00;;;;;;5053712;28;20455;-67
2023/12/06 03:57:30;;;;;;;1.20;1.10;;;5.20;98.00;;;;;;5053343;28;20481;-67
2023/12/06 03:59:57;;;;;;;1.23;1.17;;;5.00;98.00;;;;;;5053663;28;20496;-67
2023/12/06 04:02:24;;;;;;;1.40;1.20;;;4.90;98.00;;;;;;5053297;28;20482;-67
2023/12/06 04:04:52;;;;;;;2.37;1.50;;;4.90;98.00;;;;;;5053599;28;20454;-67
2023/12/06 04:07:19;;;;;;;2.90;1.30;;;4.90;98.00;;;;;;5053479;28;20464;-67
2023/12/06 04:09:47;;;;;;;1.50;1.20;;;4.80;98.00;;;;;;5035583;28;20454;-67
2023/12/06 04:12:14;;;;;;;1.50;1.20;;;4.70;98.00;;;;;;5053158;28;20474;-67
2023/12/06 04:14:42;;;;;;;1.10;1.10;;;4.70;98.00;;;;;;5035393;28;20454;-67
2023/12/06 04:17:09;;;;;;;1.63;1.20;;;4.70;98.00;;;;;;5052879;28;20451;-67
2023/12/06 04:19:38;;;;;;;1.20;1.10;;;4.70;98.00;;;;;;5052869;28;20571;-67
2023/12/06 04:22:05;;;;;;;1.60;1.20;;;4.80;98.00;;;;;;5053000;28;20451;-67
2023/12/06 04:24:33;;;;;;;1.30;1.20;;;4.80;98.00;;;;;;5035541;28;20468;-67
2023/12/06 04:27:01;;;;;;;2.00;1.23;;;4.70;98.00;;;;;;5053073;28;21080;-67
2023/12/06 04:29:28;;;;;;;3.50;1.27;;;4.70;98.00;;;;;;5053046;28;20468;-67
2023/12/06 04:31:55;;;;;;;1.63;1.30;;;4.70;98.00;;;;;;5035119;28;20459;-67
2023/12/06 04:34:22;;;;;;;1.20;1.20;;;4.70;98.00;;;;;;5035300;28;20453;-67
2023/12/06 04:36:50;;;;;;;1.50;1.30;;;4.80;98.00;;;;;;5035381;28;20874;-66
2023/12/06 04:39:17;;;;;;;1.30;1.20;;;4.80;98.00;;;;;;5052475;28;20555;-67
2023/12/06 04:41:46;;;;;;;1.60;1.20;;;4.90;98.00;;;;;;5052561;28;20547;-67
2023/12/06 04:44:14;;;;;;;1.40;1.30;;;5.00;98.00;;;;;;5034406;28;20836;-67
2023/12/06 04:46:42;;;;;;;3.20;1.67;;;4.90;98.00;;;;;;5052254;28;20818;-67
2023/12/06 04:49:09;;;;;;;1.43;1.20;;;4.90;98.00;;;;;;5052302;28;20449;-67
2023/12/06 04:51:36;;;;;;;1.20;1.10;;;4.90;98.00;;;;;;5052249;28;20462;-67
2023/12/06 04:54:03;;;;;;;1.30;1.27;;;4.90;98.00;;;;;;5051198;28;20513;-67
2023/12/06 04:56:31;;;;;;;1.30;1.20;;;4.90;98.00;;;;;;5034212;28;20467;-67
2023/12/06 04:58:58;;;;;;;1.70;1.20;;;4.90;98.00;;;;;;5052191;28;21004;-67
2023/12/06 05:01:27;;;;;;;1.30;1.30;;;4.90;98.00;;;;;;5034519;28;20538;-67
2023/12/06 05:03:55;;;;;;;1.57;1.23;;;4.80;98.00;;;;;;5052305;28;20514;-67
2023/12/06 05:06:22;;;;;;;1.20;1.10;;;4.80;98.00;;;;;;5051606;28;20545;-67
2023/12/06 05:08:50;;;;;;;2.83;1.30;;;4.90;98.00;;;;;;5051892;28;20445;-67
2023/12/06 05:11:17;;;;;;;1.30;1.20;;;4.90;98.00;;;;;;5034301;28;20459;-67
2023/12/06 05:13:44;;;;;;;1.30;1.20;;;4.90;98.00;;;;;;5051503;28;20455;-66
2023/12/06 05:16:11;;;;;;;1.30;1.20;;;4.90;98.00;;;;;;5051907;28;20542;-66
2023/12/06 05:18:39;;;;;;;1.57;1.20;;;4.90;98.00;;;;;;5051730;28;20454;-67
2023/12/06 05:21:07;;;;;;;1.50;1.10;;;4.80;98.00;;;;;;5051592;28;20490;-66
2023/12/06 05:23:34;;;;;;;1.83;1.30;;;4.80;98.00;;;;;;5051437;28;20459;-67
2023/12/06 05:26:02;;;;;;;1.40;1.20;;;4.80;98.00;;;;;;5034026;28;20491;-66
2023/12/06 05:28:29;;;;;;;1.43;1.20;;;4.80;98.00;;;;;;5051497;28;20451;-67
2023/12/06 05:30:56;;;;;;;1.20;1.10;;;4.80;98.00;;;;;;5051696;28;20781;-67
2023/12/06 05:33:22;;;;;;;1.70;1.13;;;4.80;98.00;;;;;;5051311;28;20465;-67
2023/12/06 05:35:51;;;;;;;1.20;1.10;;;4.80;98.00;;;;;;5051349;28;20549;-66
2023/12/06 05:38:18;;;;;;;1.30;1.20;;;4.90;98.00;;;;;;5051184;28;20458;-67
2023/12/06 05:40:45;;;;;;;1.30;1.20;;;4.90;98.00;;;;;;5051637;28;20839;-67
2023/12/06 05:43:13;;;;;;;1.50;1.30;;;4.90;98.00;;;;;;5051278;28;20456;-67
2023/12/06 05:45:40;;;;;;;1.23;1.10;;;5.00;98.00;;;;;;5051266;28;20469;-67
2023/12/06 05:48:08;;;;;;;1.20;1.20;;;5.00;98.00;;;;;;5033544;28;20456;-67
2023/12/06 05:50:36;;;;;;;1.40;1.33;;;5.00;98.00;;;;;;5033792;28;20601;-67
2023/12/06 05:53:04;;;;;;;1.80;1.40;;;5.00;98.00;;;;;;5051530;28;20471;-67
2023/12/06 05:55:31;;;;;;;1.70;1.30;;;5.00;98.00;;;;;;5050758;28;20524;-67
2023/12/06 05:57:58;;;;;;;1.53;1.30;;;5.00;98.00;;;;;;5051002;28;20457;-67
2023/12/06 06:00:25;;;;;;;1.50;1.20;;;5.00;98.00;;;;;;5033746;28;20536;-66
2023/12/06 06:02:53;;;;;;;1.63;1.23;;;5.00;98.00;;;;;;5051324;28;20452;-67
2023/12/06 06:05:20;;;;;;;1.30;1.20;;;5.00;98.00;;;;;;5033416;28;21001;-67
2023/12/06 06:07:47;;;;;;;1.43;1.20;;;5.10;98.00;;;;;;5033321;28;20483;-67
2023/12/06 06:10:16;;;;;;;1.47;1.20;;;5.10;98.00;;;;;;5051088;28;20454;-67
2023/12/06 06:12:44;;;;;;;1.97;1.73;;;5.20;98.00;;;;;;5033624;28;20453;-66
2023/12/06 06:15:11;;;;;;;2.33;1.30;;;5.20;98.00;;;;;;5033858;28;20452;-66
2023/12/06 06:17:38;;;;;;;1.47;1.30;;;5.10;98.00;;;;;;5033713;28;20455;-67
2023/12/06 06:20:06;;;;;;;2.10;1.30;;;5.20;98.00;;;;;;5051265;28;20541;-66
2023/12/06 06:22:33;;;;;;;1.50;1.40;;;5.10;98.00;;;;;;5050935;28;20526;-67
2023/12/06 06:25:02;;;;;;;1.60;1.40;;;5.10;98.00;;;;;;5050977;28;20512;-66
2023/12/06 06:27:30;;;;;;;2.30;1.80;;;5.10;98.00;;;;;;5050708;28;20459;-66
2023/12/06 06:29:58;;;;;;;1.80;1.50;;;5.10;98.00;;;;;;5051215;28;20460;-66
2023/12/06 06:32:25;;;;;;;2.03;1.40;;;5.00;98.00;;;;;;5050966;28;20491;-67
2023/12/06 06:34:52;;;;;;;1.43;1.37;;;5.00;98.00;;;;;;5033339;28;20447;-67
2023/12/06 06:37:19;;;;;;;1.97;1.50;;;5.10;98.00;;;;;;5050691;28;20965;-67
2023/12/06 06:39:47;;;;;;;1.97;1.40;;;5.00;98.00;;;;;;5050938;28;20480;-67
2023/12/06 06:42:14;;;;;;;1.97;1.40;;;5.00;98.00;;;;;;5033073;28;20450;-67
2023/12/06 06:44:47;;;;;;;1.80;1.47;;;5.00;98.00;;;;;;5050871;28;20504;-67
2023/12/06 06:47:15;;;;;;;1.70;1.50;;;5.10;98.00;;;;;;5050723;28;20731;-67
2023/12/06 06:49:45;;;;;;;2.10;1.50;;;5.10;98.00;;;;;;5050722;28;20625;-66
2023/12/06 06:52:12;;;;;;;1.90;1.70;;;5.10;98.00;;;;;;5033326;28;20967;-67
2023/12/06 06:54:39;;;;;;;5.97;3.13;;;5.00;98.00;;;;;;5050547;28;20512;-66
2023/12/06 06:57:06;;;;;;;1.70;1.50;;;5.00;98.00;;;;;;5050612;28;20462;-67
2023/12/06 06:59:33;;;;;;;2.00;1.60;;;5.00;98.00;;;;;;5050448;28;20460;-67
2023/12/06 07:02:02;;;;;;;1.60;1.40;;;5.00;98.00;;;;;;5050676;28;20464;-61
2023/12/06 07:04:31;;;;;;;2.30;1.70;;;5.00;98.00;;;;;;5050607;28;20516;-61
2023/12/06 07:07:00;;;;;;;2.10;1.43;;;5.00;98.00;;;;;;5032850;28;20454;-61
2023/12/06 07:09:27;;;;;;;2.40;1.67;;;5.00;98.00;;;;;;5050607;28;20505;-61
2023/12/06 07:11:54;;;;;;;2.53;1.60;;;5.00;98.00;;;;;;5050596;28;20968;-61
2023/12/06 07:14:21;;;;;;;1.73;1.40;;;5.00;98.00;;;;;;5050489;28;20982;-61
2023/12/06 07:16:48;;;;;;;1.83;1.50;;;5.00;98.00;;;;;;5033263;28;20456;-61
2023/12/06 07:19:17;;;;;;;2.07;1.87;;;5.10;98.00;;;;;;5054321;28;20855;-61
2023/12/06 07:21:44;;;;;;;2.33;1.60;;;5.20;98.00;;;;;;5053925;28;20892;-61
2023/12/06 07:24:11;;;;;;;1.73;1.47;;;5.20;98.00;;;;;;5054161;28;20461;-61
2023/12/06 07:26:39;;;;;;;2.00;1.40;;;5.10;98.00;;;;;;5053705;28;20455;-61
2023/12/06 07:29:06;;;;;;;3.67;1.57;;;5.10;98.00;;;;;;5053932;28;20451;-61
2023/12/06 07:31:33;;;;;;;2.03;1.50;;;5.10;98.00;;;;;;5036218;28;20479;-61
2023/12/06 07:34:00;;;;;;;1.70;1.40;;;5.20;98.00;;;;;;5053752;28;20488;-61
2023/12/06 07:36:29;;;;;;;1.80;1.53;;;5.20;98.00;;;;;;5053337;28;20956;-61
2023/12/06 07:38:56;;;;;;;1.60;1.30;;;5.20;98.00;;;;;;5053946;28;20459;-61
2023/12/06 07:41:23;;;;;;;1.60;1.50;;;5.20;98.00;;;;;;5053740;28;20483;-61
2023/12/06 07:43:50;;;;;;;3.30;1.70;;;5.20;98.00;;;;;;5054153;28;20449;-62
2023/12/06 07:46:19;;;;;;;1.60;1.37;;;5.30;98.00;;;;;;5053787;28;20453;-62
2023/12/06 07:48:47;;;;;;;2.07;1.53;;;5.30;98.00;;;;;;5053467;28;20449;-61
2023/12/06 07:51:15;;;;;;;1.60;1.50;;;5.30;98.00;;;;;;5036727;28;20498;-62
2023/12/06 07:53:43;;;;;;;1.67;1.47;;;5.30;98.00;;;;;;5054247;28;20559;-62
2023/12/06 07:56:11;;;;;;;2.57;1.50;;;5.30;98.00;;;;;;5054099;28;20937;-61
2023/12/06 07:58:38;;;;;;;4.63;2.03;;;5.30;98.00;;;;;;5053935;28;20462;-61
2023/12/06 08:01:06;;;;;;;3.50;1.37;;;5.30;98.00;;;;;;5053480;28;20979;-61
2023/12/06 08:03:37;;;;;;;2.23;1.43;;;5.30;98.00;;;;;;5053528;28;20548;-61
2023/12/06 08:06:05;;;;;;;1.73;1.60;;;5.30;98.00;;;;;;5053868;28;20858;-61
2023/12/06 08:08:34;;;;;;;2.40;1.43;;;5.30;98.00;;;;;;5053586;28;20509;-61
2023/12/06 08:11:04;;;;;;;4.90;1.70;;;5.20;98.00;;;;;;5053734;28;20864;-61
2023/12/06 08:13:31;;;;;;;2.00;1.40;;;5.20;98.00;;;;;;5053253;28;20464;-61
2023/12/06 08:15:58;;;;;;;2.13;1.60;;;5.20;98.00;;;;;;5052728;28;20466;-61
2023/12/06 08:18:25;;;;;;;1.90;1.50;;;5.20;98.00;;;;;;5053056;28;20942;-61
2023/12/06 08:20:53;;;;;;;2.00;1.43;;;5.10;98.00;;;;;;5052983;28;20486;-61
2023/12/06 08:23:21;;;;;;;1.90;1.57;;;5.10;98.00;;;;;;5053090;28;20852;-61
2023/12/06 08:25:48;;;;;;;1.70;1.50;;;5.10;98.00;;;;;;5052824;28;20555;-61
2023/12/06 08:28:17;;;;;;;2.30;1.47;;;5.20;98.00;;;;;;5052378;28;20972;-61
2023/12/06 08:30:44;;;;;;;3.03;1.70;;;5.10;98.00;;;;;;5052979;28;20487;-61
2023/12/06 08:33:13;;;;;;;1.90;1.40;;;5.10;98.00;;;;;;5052627;28;20507;-61
2023/12/06 08:35:40;;;;;;;1.50;1.30;;;5.10;98.00;;;;;;5052912;28;20458;-61
2023/12/06 08:38:07;;;;;;;2.70;1.70;;;5.10;98.00;;;;;;5052554;28;20985;-61
2023/12/06 08:40:34;;;;;;;5.40;1.70;;;5.10;98.00;;;;;;5052503;28;20565;-61
2023/12/06 08:43:03;;;;;;;1.60;1.60;;;5.10;98.00;;;;;;5052513;28;20986;-61
2023/12/06 08:45:33;;;;;;;2.30;1.37;;;5.10;98.00;;;;;;5052474;28;20548;-61
2023/12/06 08:48:01;;;;;;;5.43;1.80;;;5.20;98.00;;;;;;5052556;28;20455;-61
2023/12/06 08:50:28;;;;;;;2.17;1.60;;;5.20;98.00;;;;;;5034841;28;20956;-61
2023/12/06 08:52:55;;;;;;;3.47;1.80;;;5.20;98.00;;;;;;5052141;28;20464;-61
2023/12/06 08:55:23;;;;;;;2.43;1.80;;;5.20;98.00;;;;;;5052182;28;20453;-61
2023/12/06 08:57:50;;;;;;;3.57;2.17;;;5.20;98.00;;;;;;5052131;28;20542;-61
2023/12/06 09:00:18;;;;;;;2.90;1.90;;;5.20;98.00;;;;;;5052241;28;20480;-61
2023/12/06 09:02:46;;;;;;;1.87;1.50;;;5.30;98.00;;;;;;5052323;28;20547;-61
2023/12/06 09:05:13;;;;;;;2.00;1.50;;;5.30;98.00;;;;;;5052198;28;20482;-61
2023/12/06 09:07:41;;;;;;;2.13;1.60;;;5.30;98.00;;;;;;5052111;28;20451;-61
2023/12/06 09:10:09;;;;;;;2.80;1.80;;;5.30;98.00;;;;;;5052026;28;20452;-61
2023/12/06 09:12:36;;;;;;;3.80;2.40;;;5.40;98.00;;;;;;5051907;28;20945;-61
2023/12/06 09:15:04;;;;;;;4.10;2.70;;;5.50;98.00;;;;;;5034476;28;20510;-61
2023/12/06 09:17:32;;;;;;;3.90;2.37;;;5.40;98.00;;;;;;5051811;28;20447;-61
2023/12/06 09:20:00;;;;;;;8.20;3.70;;;5.40;98.00;;;;;;5051750;28;20455;-61
2023/12/06 09:22:27;;;;;;;7.33;3.40;;;5.40;98.00;;;;;;5051586;28;20496;-61
2023/12/06 09:24:54;;;;;;;6.50;3.77;;;5.30;98.00;;;;;;5034057;28;20475;-61
2023/12/06 09:27:21;;;;;;;9.23;4.33;;;5.30;98.00;;;;;;5051661;28;20508;-62
2023/12/06 09:29:48;;;;;;;10.23;4.50;;;5.30;98.00;;;;;;5051900;28;20448;-62
2023/12/06 09:32:15;;;;;;;8.07;4.00;;;5.30;98.00;;;;;;5051984;28;20452;-61
2023/12/06 09:34:45;;;;;;;9.10;4.47;;;5.30;98.00;;;;;;5051684;28;20448;-61
2023/12/06 09:37:14;;;;;;;10.60;4.57;;;5.30;98.00;;;;;;5051585;28;20497;-61
2023/12/06 09:39:41;;;;;;;9.53;4.40;;;5.20;98.00;;;;;;5051076;28;20492;-61
2023/12/06 09:42:09;;;;;;;9.03;4.53;;;5.10;98.00;;;;;;5041461;28;20861;-61
2023/12/06 09:44:39;;;;;;;7.13;4.00;;;5.10;98.00;;;;;;5031424;28;20458;-62
2023/12/06 09:47:06;;;;;;;8.50;4.20;;;5.10;98.00;;;;;;5031539;28;20473;-62
2023/12/06 09:49:33;;;;;;;10.57;5.00;;;5.00;98.00;;;;;;5031688;28;20451;-61
2023/12/06 09:52:08;;;;;;;10.83;4.93;;;5.00;98.00;;;;;;5013633;28;20448;-61
2023/12/06 09:54:47;;;;;;;7.73;3.70;;;5.00;98.00;;;;;;5031635;28;20451;-61
2023/12/06 09:57:14;;;;;;;14.10;5.57;;;5.00;98.00;;;;;;5300351;22;20496;-61
2023/12/06 09:59:41;;;;;;;10.70;4.80;;;4.80;98.00;;;;;;5010816;28;20456;-62
2023/12/06 10:02:08;;;;;;;9.70;4.73;;;4.90;98.00;;;;;;5012139;28;20515;-62
2023/12/06 10:04:36;;;;;;;11.50;4.67;;;4.90;98.00;;;;;;5030282;28;20467;-61
2023/12/06 10:07:03;;;;;;;12.87;5.20;;;4.90;98.00;;;;;;5030914;28;20935;-61
2023/12/06 10:09:31;;;;;;;11.23;5.03;;;4.90;98.00;;;;;;5031052;28;20873;-61
2023/12/06 10:12:11;;;;;;;11.93;5.03;;;4.90;98.00;;;;;;5030816;28;20441;-61
2023/12/06 10:14:39;;;;;;;12.13;5.20;;;4.90;98.00;;;;;;5030824;28;20451;-61
2023/12/06 10:17:09;;;;;;;10.07;4.57;;;4.90;98.00;;;;;;5030021;28;20458;-61
2023/12/06 10:19:37;;;;;;;12.00;4.83;;;4.80;98.00;;;;;;5026424;28;20469;-62
2023/12/06 10:22:05;;;;;;;10.13;4.90;;;4.80;98.00;;;;;;5011152;28;20485;-61
2023/12/06 10:24:32;;;;;;;10.03;4.43;;;4.80;98.00;;;;;;5011108;28;20457;-61
2023/12/06 10:27:03;;;;;;;9.13;4.40;;;4.80;98.00;;;;;;5011000;28;20456;-61
2023/12/06 10:29:33;;;;;;;12.30;5.43;;;4.80;98.00;;;;;;5011063;28;20781;-61
2023/12/06 10:32:00;;;;;;;10.70;4.93;;;4.90;98.00;;;;;;5010918;28;20720;-61
2023/12/06 10:34:28;;;;;;;13.27;5.17;;;4.80;98.00;;;;;;5011002;28;20463;-61
2023/12/06 10:36:56;;;;;;;10.73;5.27;;;4.90;98.00;;;;;;5010552;28;20865;-61
2023/12/06 10:39:26;;;;;;;11.80;5.53;;;4.90;98.00;;;;;;4992781;28;20446;-61
2023/12/06 10:41:56;;;;;;;12.13;5.40;;;4.80;98.00;;;;;;5026056;28;20481;-61
2023/12/06 10:44:24;;;;;;;10.97;4.97;;;4.90;98.00;;;;;;5030740;28;20462;-61
2023/12/06 10:46:54;;;;;;;13.40;5.10;;;4.90;98.00;;;;;;5030665;28;20461;-61
2023/12/06 10:49:22;;;;;;;10.03;5.30;;;4.80;98.00;;;;;;5030867;28;20676;-61
2023/12/06 10:51:50;;;;;;;10.50;4.50;;;4.80;98.00;;;;;;5032734;28;20455;-61
2023/12/06 10:54:17;;;;;;;12.97;4.93;;;4.90;98.00;;;;;;5034481;28;20451;-61
2023/12/06 10:56:45;;;;;;;13.40;5.40;;;4.90;98.00;;;;;;5034071;28;21060;-62
2023/12/06 10:59:14;;;;;;;9.30;4.70;;;4.90;98.00;;;;;;5034552;28;20459;-62
2023/12/06 11:01:41;;;;;;;8.77;4.17;;;4.80;98.00;;;;;;5034652;28;20839;-62
2023/12/06 11:04:10;;;;;;;12.23;5.13;;;4.80;98.00;;;;;;5237213;22;20790;-63
2023/12/06 11:06:49;;;;;;;9.67;5.20;;;4.90;98.00;;;;;;5014231;28;20450;-64
2023/12/06 11:09:30;;;;;;;9.43;4.27;;;5.00;98.00;;;;;;5014119;28;21104;-64
2023/12/06 11:12:09;;;;;;;10.37;5.07;;;5.10;98.00;;;;;;5014890;28;20452;-65
2023/12/06 11:14:59;;;;;;;10.73;5.17;;;5.10;98.00;;;;;;5014465;28;20455;-64
2023/12/06 11:17:42;;;;;;;10.70;4.93;;;5.10;98.00;;;;;;5014622;28;20833;-63
2023/12/06 11:20:11;;;;;;;11.60;4.80;;;5.00;98.00;;;;;;5014761;28;20549;-63
2023/12/06 11:22:39;;;;;;;10.27;4.53;;;5.00;98.00;;;;;;5014405;28;20535;-64
2023/12/06 11:25:09;;;;;;;11.57;4.97;;;5.10;98.00;;;;;;4997380;28;20517;-64
2023/12/06 11:27:41;;;;;;;7.57;4.30;;;5.00;98.00;;;;;;5014407;28;21016;-63
2023/12/06 11:30:16;;;;;;;9.00;4.63;;;5.10;98.00;;;;;;5015154;28;20556;-63
2023/12/06 11:32:44;;;;;;;11.77;5.00;;;5.10;98.00;;;;;;5014860;28;20540;-64
2023/12/06 11:35:13;;;;;;;10.27;5.10;;;5.20;98.00;;;;;;5014771;28;20481;-63
2023/12/06 11:37:40;;;;;;;9.00;4.50;;;5.10;98.00;;;;;;5014453;28;20459;-64
2023/12/06 11:40:18;;;;;;;10.63;4.17;;;5.10;98.00;;;;;;5014123;28;20462;-64
2023/12/06 11:42:54;;;;;;;13.33;5.60;;;5.10;98.00;;;;;;5013693;28;20545;-64
2023/12/06 11:45:28;;;;;;;11.07;5.00;;;5.10;98.00;;;;;;5014062;28;20957;-63
2023/12/06 11:47:57;;;;;;;12.23;4.90;;;5.20;98.00;;;;;;5014328;28;20810;-64
2023/12/06 11:50:26;;;;;;;8.63;4.77;;;5.20;98.00;;;;;;5014305;28;20470;-64
2023/12/06 11:52:55;;;;;;;7.87;4.00;;;5.20;98.00;;;;;;5014550;28;20950;-64
2023/12/06 11:58:01;;;;;;;10.90;4.70;;;5.10;98.00;;;;;;5011825;28;20485;-63
2023/12/06 12:00:30;;;;;;;11.20;4.80;;;5.10;98.00;;;;;;5014467;28;20509;-65
2023/12/06 12:02:59;;;;;;;9.07;4.70;;;5.10;98.00;;;;;;5013382;28;20998;-64
2023/12/06 12:05:28;;;;;;;9.30;4.40;;;5.10;98.00;;;;;;5014103;28;20487;-65
2023/12/06 12:07:56;;;;;;;10.10;5.20;;;5.10;98.00;;;;;;5013787;28;20530;-64
2023/12/06 12:10:25;;;;;;;10.93;4.40;;;5.20;98.00;;;;;;5013996;28;20822;-64
2023/12/06 12:12:52;;;;;;;11.70;5.37;;;5.20;98.00;;;;;;5013703;28;20521;-66
2023/12/06 12:15:20;;;;;;;9.70;4.33;;;5.10;98.00;;;;;;5013841;28;20472;-63
2023/12/06 12:17:47;;;;;;;11.87;5.00;;;5.10;98.00;;;;;;5014106;28;20462;-65
2023/12/06 12:20:14;;;;;;;12.23;5.10;;;5.10;98.00;;;;;;5013781;28;20456;-66
2023/12/06 12:22:47;;;;;;;8.23;4.20;;;5.10;98.00;;;;;;5013175;28;20496;-64
2023/12/06 12:25:14;;;;;;;9.17;4.13;;;5.10;98.00;;;;;;5013686;28;20577;-64
2023/12/06 12:27:45;;;;;;;17.00;5.50;;;5.10;98.00;;;;;;5013285;28;20454;-64
2023/12/06 12:30:15;;;;;;;10.43;4.67;;;5.00;98.00;;;;;;5013804;28;20951;-64
2023/12/06 12:32:46;;;;;;;11.60;4.80;;;5.00;98.00;;;;;;5013293;28;20527;-64
2023/12/06 12:35:13;;;;;;;10.40;5.03;;;5.10;98.00;;;;;;5013634;28;20808;-64
2023/12/06 12:37:41;;;;;;;11.50;4.60;;;5.10;98.00;;;;;;5013510;28;20458;-64
2023/12/06 12:40:10;;;;;;;12.33;5.20;;;5.10;98.00;;;;;;5013572;28;20961;-63
2023/12/06 12:42:42;;;;;;;8.70;4.83;;;5.10;98.00;;;;;;5013351;28;20845;-64
2023/12/06 12:45:11;;;;;;;8.20;4.43;;;5.10;98.00;;;;;;5013400;28;20459;-63
2023/12/06 12:47:38;;;;;;;11.20;4.90;;;5.20;98.00;;;;;;5013424;28;20455;-64
2023/12/06 12:50:07;;;;;;;9.07;4.70;;;5.10;98.00;;;;;;5013420;28;20910;-64
2023/12/06 12:52:38;;;;;;;11.70;4.57;;;5.10;98.00;;;;;;5013363;28;20834;-65
2023/12/06 12:55:06;;;;;;;9.27;4.57;;;5.10;98.00;;;;;;5013805;28;20804;-64
2023/12/06 12:57:42;;;;;;;10.73;5.20;;;5.10;98.00;;;;;;5012939;28;20501;-64
2023/12/06 13:00:19;;;;;;;10.90;5.10;;;5.20;98.00;;;;;;5013496;28;20450;-64
2023/12/06 13:02:47;;;;;;;9.67;4.60;;;5.20;98.00;;;;;;5012822;28;20483;-64